Wetterdaten: Woche 17.12.18 - 23.12.18 (KW51)
Datum Zeit Temp. Aussen Temp. o. S. +5cm Feuchte Auss Luftdruck Regen Sonnenschein Regendauer Solar Windben Empfang
17.12.2018 00:00 1,3 C 1,0 C 0,6 C 95 % 1012,2 hPa 0,0 l/m 0,00 h 0,00 h 0 W/m 2,1 km/h (1 Bft) 95,91 %
17.12.2018 01:00 1,5 C 1,1 C 0,5 C 96 % 1011,8 hPa 0,2 l/m 0,00 h 0,00 h 0 W/m 2,0 km/h (1 Bft) 96,65 %
17.12.2018 02:00 1,5 C 1,1 C 0,0 C 96 % 1011,8 hPa 0,0 l/m 0,00 h 0,00 h 0 W/m 2,4 km/h (1 Bft) 97,01 %
17.12.2018 03:00 1,5 C 1,1 C 0,5 C 96 % 1012,0 hPa 0,2 l/m 0,00 h 0,00 h 0 W/m 13,7 km/h (3 Bft) 98,08 %
17.12.2018 04:00 1,8 C 1,4 C 0,7 C 97 % 1012,1 hPa 0,0 l/m 0,00 h 0,00 h 0 W/m 16,4 km/h (3 Bft) 96,89 %
17.12.2018 05:00 2,1 C 1,8 C 1,1 C 97 % 1012,2 hPa 0,4 l/m 0,00 h 0,23 h 0 W/m 19,5 km/h (3 Bft) 99,04 %
17.12.2018 06:00 2,4 C 1,7 C 1,1 C 97 % 1012,7 hPa 0,4 l/m 0,00 h 0,27 h 0 W/m 16,0 km/h (3 Bft) 95,15 %
17.12.2018 07:00 2,7 C 2,2 C 1,6 C 97 % 1013,1 hPa 1,2 l/m 0,00 h 1,00 h 0 W/m 20,4 km/h (4 Bft) 96,98 %
17.12.2018 08:00 3,0 C 2,3 C 1,8 C 97 % 1013,7 hPa 0,6 l/m 0,00 h 0,93 h 6 W/m 15,0 km/h (3 Bft) 98,79 %
17.12.2018 09:00 3,3 C 3,0 C 2,3 C 97 % 1014,4 hPa 0,0 l/m 0,00 h 0,00 h 13 W/m 12,6 km/h (3 Bft) 95,64 %
17.12.2018 10:00 4,0 C 3,7 C 3,0 C 98 % 1015,1 hPa 0,4 l/m 0,00 h 0,43 h 30 W/m 10,3 km/h (2 Bft) 96,80 %
17.12.2018 11:00 5,5 C 5,7 C 4,8 C 98 % 1015,4 hPa 0,0 l/m 0,10 h 0,03 h 101 W/m 16,2 km/h (3 Bft) 98,20 %
17.12.2018 12:00 6,6 C 6,1 C 5,5 C 98 % 1015,7 hPa 0,0 l/m 0,07 h 0,70 h 68 W/m 17,4 km/h (3 Bft) 97,28 %
17.12.2018 13:00 6,7 C 5,8 C 5,2 C 97 % 1016,2 hPa 0,4 l/m 0,00 h 0,83 h 62 W/m 14,0 km/h (3 Bft) 96,57 %
17.12.2018 14:00 6,6 C 5,6 C 5,0 C 96 % 1016,9 hPa 1,0 l/m 0,00 h 1,00 h 14 W/m 7,4 km/h (2 Bft) 98,01 %
17.12.2018 15:00 6,7 C 6,1 C 5,4 C 96 % 1017,6 hPa 0,0 l/m 0,33 h 0,07 h 46 W/m 8,9 km/h (2 Bft) 97,87 %
17.12.2018 16:00 6,9 C 6,0 C 5,3 C 95 % 1018,7 hPa 0,0 l/m 0,17 h 0,00 h 14 W/m 10,0 km/h (2 Bft) 95,64 %
17.12.2018 17:00 6,6 C 5,4 C 4,8 C 93 % 1019,7 hPa 0,0 l/m 0,00 h 0,00 h 0 W/m 7,1 km/h (2 Bft) 98,85 %
17.12.2018 18:00 5,9 C 4,6 C 4,1 C 93 % 1020,2 hPa 0,0 l/m 0,00 h 0,00 h 0 W/m 7,2 km/h (2 Bft) 98,22 %
17.12.2018 19:00 5,4 C 4,5 C 4,0 C 94 % 1020,9 hPa 0,0 l/m 0,00 h 0,00 h 0 W/m 9,2 km/h (2 Bft) 95,73 %
17.12.2018 20:00 5,5 C 4,7 C 4,2 C 95 % 1021,5 hPa 0,0 l/m 0,00 h 0,00 h 0 W/m 10,2 km/h (2 Bft) 98,79 %
17.12.2018 21:00 5,3 C 4,5 C 4,1 C 95 % 1022,0 hPa 0,0 l/m 0,00 h 0,00 h 0 W/m 12,0 km/h (2 Bft) 98,22 %
17.12.2018 22:00 5,0 C 3,9 C 3,2 C 95 % 1022,3 hPa 0,0 l/m 0,00 h 0,00 h 0 W/m 4,3 km/h (1 Bft) 96,09 %
17.12.2018 23:00 4,5 C 4,1 C 3,5 C 96 % 1022,8 hPa 0,0 l/m 0,00 h 0,00 h 0 W/m 8,7 km/h (2 Bft) 92,96 %
18.12.2018 00:00 4,8 C 4,4 C 3,5 C 96 % 1022,8 hPa 0,0 l/m 0,00 h 0,00 h 0 W/m 8,8 km/h (2 Bft) 87,27 %
18.12.2018 01:00 4,9 C 4,8 C 3,8 C 97 % 1022,6 hPa 0,0 l/m 0,00 h 0,00 h 0 W/m 7,5 km/h (2 Bft) 86,12 %
18.12.2018 02:00 5,1 C 4,6 C 3,9 C 97 % 1022,3 hPa 0,0 l/m 0,00 h 0,00 h 0 W/m 8,4 km/h (2 Bft) 90,60 %
18.12.2018 03:00 4,1 C 3,0 C 2,3 C 95 % 1022,5 hPa 0,0 l/m 0,00 h 0,00 h 0 W/m 4,5 km/h (1 Bft) 86,33 %
18.12.2018 04:00 3,1 C 2,3 C 1,7 C 95 % 1022,2 hPa 0,0 l/m 0,00 h 0,00 h 0 W/m 6,4 km/h (2 Bft) 94,36 %
18.12.2018 05:00 2,7 C 2,2 C 1,5 C 96 % 1021,8 hPa 0,2 l/m 0,00 h 0,00 h 0 W/m 9,3 km/h (2 Bft) 95,71 %
18.12.2018 06:00 2,7 C 2,2 C 1,4 C 96 % 1021,8 hPa 0,0 l/m 0,00 h 0,00 h 0 W/m 11,8 km/h (2 Bft) 96,33 %
18.12.2018 07:00 2,6 C 2,2 C 1,1 C 96 % 1021,7 hPa 0,0 l/m 0,00 h 0,00 h 0 W/m 15,0 km/h (3 Bft) 97,87 %
18.12.2018 08:00 2,5 C 2,2 C 1,2 C 96 % 1021,3 hPa 0,0 l/m 0,00 h 0,00 h 9 W/m 15,1 km/h (3 Bft) 96,98 %
18.12.2018 09:00 2,8 C 3,0 C 1,9 C 96 % 1021,1 hPa 0,0 l/m 0,03 h 0,00 h 43 W/m 16,6 km/h (3 Bft) 97,06 %
18.12.2018 10:00 4,0 C 5,7 C 3,0 C 96 % 1020,7 hPa 0,0 l/m 0,77 h 0,00 h 121 W/m 17,6 km/h (3 Bft) 97,13 %
18.12.2018 11:00 5,6 C 7,4 C 4,5 C 94 % 1019,9 hPa 0,0 l/m 1,00 h 0,00 h 170 W/m 20,3 km/h (4 Bft) 95,97 %
18.12.2018 12:00 6,6 C 7,8 C 5,9 C 90 % 1018,7 hPa 0,0 l/m 1,00 h 0,00 h 181 W/m 21,0 km/h (4 Bft) 98,87 %
18.12.2018 13:00 7,4 C 8,9 C 6,6 C 88 % 1018,1 hPa 0,0 l/m 1,00 h 0,00 h 188 W/m 24,6 km/h (4 Bft) 97,24 %
18.12.2018 14:00 7,5 C 7,8 C 6,1 C 86 % 1017,2 hPa 0,0 l/m 0,67 h 0,00 h 116 W/m 25,8 km/h (4 Bft) 95,72 %
18.12.2018 15:00 6,4 C 5,9 C 4,9 C 87 % 1016,6 hPa 0,0 l/m 0,00 h 0,00 h 45 W/m 28,1 km/h (4 Bft) 98,36 %
18.12.2018 16:00 5,4 C 4,7 C 4,0 C 89 % 1015,9 hPa 0,0 l/m 0,00 h 0,00 h 10 W/m 28,9 km/h (5 Bft) 97,58 %
18.12.2018 17:00 5,1 C 4,4 C 3,5 C 89 % 1015,6 hPa 0,0 l/m 0,00 h 0,00 h 0 W/m 20,8 km/h (4 Bft) 96,23 %
18.12.2018 18:00 4,9 C 4,4 C 3,4 C 89 % 1014,6 hPa 0,0 l/m 0,00 h 0,00 h 0 W/m 26,6 km/h (4 Bft) 97,14 %
18.12.2018 19:00 5,1 C 4,4 C 3,4 C 88 % 1013,4 hPa 0,0 l/m 0,00 h 0,00 h 0 W/m 31,0 km/h (5 Bft) 98,37 %
18.12.2018 20:00 5,0 C 4,4 C 3,7 C 89 % 1012,8 hPa 0,0 l/m 0,00 h 0,00 h 0 W/m 32,9 km/h (5 Bft) 96,65 %
18.12.2018 21:00 5,2 C 5,0 C 3,9 C 88 % 1012,1 hPa 0,0 l/m 0,00 h 0,00 h 0 W/m 34,6 km/h (5 Bft) 94,82 %
18.12.2018 22:00 5,2 C 4,9 C 3,9 C 87 % 1010,9 hPa 0,0 l/m 0,00 h 0,00 h 0 W/m 35,8 km/h (5 Bft) 90,91 %
18.12.2018 23:00 5,2 C 4,8 C 3,9 C 85 % 1010,2 hPa 0,0 l/m 0,00 h 0,00 h 0 W/m 34,6 km/h (5 Bft) 89,66 %
19.12.2018 00:00 5,3 C 5,0 C 3,9 C 83 % 1009,6 hPa 0,0 l/m 0,00 h 0,00 h 0 W/m 30,8 km/h (5 Bft) 85,85 %
19.12.2018 01:00 5,3 C 4,8 C 3,9 C 82 % 1009,2 hPa 0,0 l/m 0,00 h 0,00 h 0 W/m 28,2 km/h (4 Bft) 91,53 %
19.12.2018 02:00 5,1 C 4,1 C 3,4 C 84 % 1009,0 hPa 0,2 l/m 0,00 h 0,43 h 0 W/m 28,4 km/h (4 Bft) 91,66 %
19.12.2018 03:00 5,2 C 4,1 C 3,4 C 85 % 1009,1 hPa 0,2 l/m 0,00 h 0,60 h 0 W/m 24,7 km/h (4 Bft) 95,94 %
19.12.2018 04:00 5,0 C 3,3 C 2,8 C 89 % 1008,4 hPa 0,2 l/m 0,00 h 0,77 h 0 W/m 22,6 km/h (4 Bft) 95,95 %
19.12.2018 05:00 5,2 C 3,9 C 3,3 C 88 % 1008,4 hPa 0,0 l/m 0,00 h 0,35 h 0 W/m 23,8 km/h (4 Bft) 98,09 %
19.12.2018 06:00 5,2 C 4,0 C 3,5 C 90 % 1008,8 hPa 0,0 l/m 0,00 h 0,03 h 0 W/m 10,3 km/h (2 Bft) 97,65 %
19.12.2018 07:00 5,5 C 4,6 C 4,0 C 94 % 1009,2 hPa 0,2 l/m 0,00 h 0,17 h 0 W/m 3,1 km/h (1 Bft) 96,58 %
19.12.2018 08:00 5,9 C 5,3 C 4,6 C 96 % 1009,5 hPa 0,0 l/m 0,00 h 0,00 h 0 W/m 1,8 km/h (1 Bft) 97,44 %
19.12.2018 09:00 6,8 C 6,4 C 5,7 C 97 % 1010,1 hPa 0,0 l/m 0,00 h 0,00 h 19 W/m 2,2 km/h (1 Bft) 97,22 %
19.12.2018 10:00 7,4 C 7,5 C 6,7 C 97 % 1010,7 hPa 0,0 l/m 0,10 h 0,00 h 64 W/m 1,6 km/h (1 Bft) 96,80 %
19.12.2018 11:00 9,1 C 12,0 C 8,0 C 94 % 1010,4 hPa 0,0 l/m 0,97 h 0,00 h 222 W/m 9,0 km/h (2 Bft) 98,29 %
19.12.2018 12:00 9,9 C 9,7 C 8,7 C 85 % 1010,1 hPa 0,0 l/m 0,00 h 0,00 h 68 W/m 12,3 km/h (3 Bft) 97,27 %
19.12.2018 13:00 9,9 C 9,8 C 8,9 C 83 % 1009,8 hPa 0,0 l/m 0,00 h 0,00 h 51 W/m 17,0 km/h (3 Bft) 95,87 %
19.12.2018 14:00 9,9 C 9,4 C 8,8 C 82 % 1009,5 hPa 0,0 l/m 0,00 h 0,00 h 25 W/m 12,9 km/h (3 Bft) 99,00 %
19.12.2018 15:00 9,7 C 9,1 C 8,2 C 83 % 1009,4 hPa 0,0 l/m 0,10 h 0,10 h 26 W/m 8,6 km/h (2 Bft) 96,09 %
19.12.2018 16:00 9,5 C 8,9 C 8,0 C 83 % 1009,1 hPa 0,0 l/m 0,00 h 0,00 h 10 W/m 9,1 km/h (2 Bft) 97,56 %
19.12.2018 17:00 9,2 C 8,5 C 7,8 C 83 % 1009,4 hPa 0,0 l/m 0,00 h 0,00 h 0 W/m 7,5 km/h (2 Bft) 95,52 %
19.12.2018 18:00 8,6 C 7,3 C 6,4 C 85 % 1009,3 hPa 0,0 l/m 0,00 h 0,10 h 0 W/m 1,6 km/h (1 Bft) 91,65 %
19.12.2018 19:00 7,4 C 6,4 C 5,6 C 88 % 1009,5 hPa 0,0 l/m 0,00 h 0,00 h 0 W/m 2,8 km/h (1 Bft) 98,50 %
19.12.2018 20:00 6,7 C 6,0 C 5,0 C 90 % 1009,4 hPa 0,0 l/m 0,00 h 0,00 h 0 W/m 1,3 km/h (1 Bft) 95,72 %
19.12.2018 21:00 6,3 C 5,7 C 4,7 C 91 % 1009,4 hPa 0,0 l/m 0,00 h 0,00 h 0 W/m 0,4 km/h (0 Bft) 87,54 %
19.12.2018 22:00 6,2 C 5,7 C 5,0 C 93 % 1009,3 hPa 0,0 l/m 0,00 h 0,00 h 0 W/m 0,4 km/h (0 Bft) 99,43 %
19.12.2018 23:00 6,3 C 6,0 C 5,0 C 94 % 1009,3 hPa 0,0 l/m 0,00 h 0,00 h 0 W/m 0,0 km/h (0 Bft) 96,02 %
20.12.2018 00:00 6,1 C 5,6 C 4,5 C 94 % 1009,0 hPa 0,0 l/m 0,00 h 0,00 h 0 W/m 2,2 km/h (1 Bft) 97,04 %
20.12.2018 01:00 6,0 C 5,5 C 4,6 C 94 % 1008,8 hPa 0,0 l/m 0,00 h 0,00 h 0 W/m 2,1 km/h (1 Bft) 99,43 %
20.12.2018 02:00 6,1 C 5,8 C 5,0 C 94 % 1008,8 hPa 0,0 l/m 0,00 h 0,00 h 0 W/m 2,5 km/h (1 Bft) 96,30 %
20.12.2018 03:00 6,4 C 6,0 C 5,0 C 93 % 1008,8 hPa 0,0 l/m 0,00 h 0,00 h 0 W/m 4,0 km/h (1 Bft) 97,29 %
20.12.2018 04:00 6,5 C 6,1 C 5,4 C 93 % 1008,4 hPa 0,0 l/m 0,00 h 0,03 h 0 W/m 0,4 km/h (0 Bft) 98,00 %
20.12.2018 05:00 6,6 C 5,7 C 5,1 C 93 % 1008,5 hPa 0,4 l/m 0,00 h 0,27 h 0 W/m 0,4 km/h (0 Bft) 97,08 %
20.12.2018 06:00 6,4 C 5,3 C 4,5 C 95 % 1008,6 hPa 0,0 l/m 0,00 h 0,00 h 0 W/m 0,6 km/h (0 Bft) 98,27 %
20.12.2018 07:00 6,1 C 5,0 C 4,4 C 95 % 1009,0 hPa 0,0 l/m 0,00 h 0,00 h 0 W/m 0,4 km/h (0 Bft) 95,80 %
20.12.2018 08:00 5,9 C 5,0 C 4,4 C 96 % 1009,2 hPa 0,0 l/m 0,00 h 0,00 h 6 W/m 1,0 km/h (0 Bft) 98,43 %
20.12.2018 09:00 5,9 C 5,3 C 4,8 C 95 % 1009,5 hPa 0,0 l/m 0,00 h 0,40 h 23 W/m 0,5 km/h (0 Bft) 98,43 %
20.12.2018 10:00 6,7 C 6,1 C 5,8 C 95 % 1009,8 hPa 0,2 l/m 0,00 h 0,23 h 41 W/m 5,8 km/h (2 Bft) 94,66 %
20.12.2018 11:00 7,5 C 7,4 C 6,9 C 93 % 1009,8 hPa 0,0 l/m 0,07 h 0,00 h 81 W/m 11,1 km/h (2 Bft) 98,63 %
20.12.2018 12:00 8,4 C 8,5 C 7,8 C 88 % 1009,4 hPa 0,0 l/m 0,03 h 0,00 h 92 W/m 20,2 km/h (4 Bft) 97,79 %
20.12.2018 13:00 8,8 C 8,6 C 7,9 C 85 % 1009,1 hPa 0,0 l/m 0,03 h 0,00 h 80 W/m 21,4 km/h (4 Bft) 95,43 %
20.12.2018 14:00 8,6 C 7,4 C 6,9 C 86 % 1009,2 hPa 0,0 l/m 0,00 h 0,47 h 26 W/m 20,7 km/h (4 Bft) 98,60 %
20.12.2018 15:00 7,9 C 6,2 C 5,9 C 91 % 1009,4 hPa 0,2 l/m 0,00 h 0,87 h 16 W/m 13,5 km/h (3 Bft) 98,28 %
20.12.2018 16:00 7,5 C 6,3 C 5,9 C 93 % 1009,5 hPa 0,2 l/m 0,00 h 0,07 h 6 W/m 13,7 km/h (3 Bft) 96,30 %
20.12.2018 17:00 7,7 C 6,8 C 6,5 C 92 % 1009,9 hPa 0,0 l/m 0,00 h 0,03 h 0 W/m 19,3 km/h (3 Bft) 97,58 %
20.12.2018 18:00 7,8 C 6,9 C 6,4 C 91 % 1010,2 hPa 0,0 l/m 0,00 h 0,47 h 0 W/m 20,2 km/h (4 Bft) 98,53 %
20.12.2018 19:00 7,6 C 6,4 C 6,0 C 93 % 1010,2 hPa 0,2 l/m 0,00 h 0,73 h 0 W/m 17,2 km/h (3 Bft) 97,72 %
20.12.2018 20:00 7,5 C 6,3 C 6,0 C 93 % 1010,3 hPa 0,0 l/m 0,00 h 0,77 h 0 W/m 17,9 km/h (3 Bft) 96,08 %
20.12.2018 21:00 7,6 C 6,7 C 6,2 C 93 % 1010,2 hPa 0,2 l/m 0,00 h 0,30 h 0 W/m 18,6 km/h (3 Bft) 98,29 %
20.12.2018 22:00 7,5 C 6,1 C 5,6 C 94 % 1010,2 hPa 0,8 l/m 0,00 h 0,80 h 0 W/m 12,9 km/h (3 Bft) 98,08 %
20.12.2018 23:00 7,5 C 6,6 C 6,0 C 94 % 1010,1 hPa 0,0 l/m 0,00 h 0,00 h 0 W/m 18,4 km/h (3 Bft) 96,65 %
21.12.2018 00:00 8,0 C 7,6 C 6,7 C 90 % 1009,6 hPa 0,0 l/m 0,00 h 0,00 h 0 W/m 21,9 km/h (4 Bft) 97,14 %
21.12.2018 01:00 8,2 C 7,8 C 7,0 C 88 % 1009,1 hPa 0,0 l/m 0,00 h 0,00 h 0 W/m 22,0 km/h (4 Bft) 97,79 %
21.12.2018 02:00 8,3 C 7,8 C 7,1 C 87 % 1008,5 hPa 0,0 l/m 0,00 h 0,00 h 0 W/m 22,5 km/h (4 Bft) 98,15 %
21.12.2018 03:00 8,3 C 7,8 C 7,0 C 86 % 1007,5 hPa 0,0 l/m 0,00 h 0,00 h 0 W/m 18,4 km/h (3 Bft) 96,58 %
21.12.2018 04:00 8,2 C 7,6 C 6,7 C 88 % 1006,3 hPa 0,0 l/m 0,00 h 0,00 h 0 W/m 14,6 km/h (3 Bft) 97,87 %
21.12.2018 05:00 8,0 C 6,8 C 6,2 C 90 % 1004,9 hPa 1,6 l/m 0,00 h 0,53 h 0 W/m 12,1 km/h (2 Bft) 98,71 %
21.12.2018 06:00 7,5 C 6,3 C 5,7 C 94 % 1003,4 hPa 3,2 l/m 0,00 h 1,00 h 0 W/m 8,4 km/h (2 Bft) 94,99 %
21.12.2018 07:00 7,6 C 6,7 C 6,1 C 97 % 1001,6 hPa 1,8 l/m 0,00 h 1,00 h 0 W/m 22,2 km/h (4 Bft) 98,65 %
21.12.2018 08:00 8,0 C 7,3 C 6,8 C 98 % 1000,3 hPa 2,0 l/m 0,00 h 1,00 h 0 W/m 19,0 km/h (3 Bft) 98,49 %
21.12.2018 09:00 8,5 C 7,8 C 7,2 C 98 % 998,7 hPa 2,2 l/m 0,00 h 0,83 h 9 W/m 21,3 km/h (4 Bft) 95,28 %
21.12.2018 10:00 8,8 C 8,0 C 7,4 C 98 % 997,9 hPa 2,0 l/m 0,00 h 0,53 h 17 W/m 20,8 km/h (4 Bft) 98,81 %
21.12.2018 11:00 10,4 C 9,9 C 9,3 C 99 % 997,3 hPa 0,8 l/m 0,00 h 0,50 h 39 W/m 27,2 km/h (4 Bft) 96,61 %
21.12.2018 12:00 11,8 C 11,3 C 10,5 C 99 % 996,8 hPa 0,2 l/m 0,00 h 0,50 h 56 W/m 31,0 km/h (5 Bft) 96,82 %
21.12.2018 13:00 12,6 C 11,9 C 11,2 C 98 % 996,9 hPa 0,0 l/m 0,00 h 0,20 h 64 W/m 30,5 km/h (5 Bft) 98,99 %
21.12.2018 14:00 12,8 C 12,4 C 10,9 C 93 % 997,5 hPa 0,0 l/m 0,00 h 0,53 h 55 W/m 30,6 km/h (5 Bft) 96,66 %
21.12.2018 15:00 12,8 C 12,3 C 10,9 C 83 % 998,5 hPa 0,0 l/m 0,00 h 0,00 h 25 W/m 28,0 km/h (4 Bft) 97,37 %
21.12.2018 16:00 12,5 C 11,9 C 10,9 C 81 % 999,5 hPa 0,0 l/m 0,00 h 0,00 h 4 W/m 27,0 km/h (4 Bft) 97,51 %
21.12.2018 17:00 12,0 C 11,4 C 10,5 C 80 % 1000,6 hPa 0,0 l/m 0,00 h 0,00 h 0 W/m 26,2 km/h (4 Bft) 97,08 %
21.12.2018 18:00 11,6 C 10,9 C 9,8 C 81 % 1001,7 hPa 0,0 l/m 0,00 h 0,33 h 0 W/m 27,9 km/h (4 Bft) 98,82 %
21.12.2018 19:00 11,2 C 10,3 C 9,7 C 84 % 1002,9 hPa 0,0 l/m 0,00 h 0,50 h 0 W/m 24,1 km/h (4 Bft) 95,93 %
21.12.2018 20:00 11,3 C 10,6 C 10,0 C 81 % 1003,6 hPa 0,0 l/m 0,00 h 0,00 h 0 W/m 27,0 km/h (4 Bft) 97,51 %
21.12.2018 21:00 11,3 C 10,6 C 9,8 C 80 % 1004,1 hPa 0,0 l/m 0,00 h 0,00 h 0 W/m 22,5 km/h (4 Bft) 99,14 %
21.12.2018 22:00 10,9 C 10,4 C 9,4 C 82 % 1004,8 hPa 0,0 l/m 0,00 h 0,00 h 0 W/m 19,8 km/h (4 Bft) 95,51 %
21.12.2018 23:00 10,6 C 9,9 C 9,1 C 84 % 1005,3 hPa 0,0 l/m 0,00 h 0,00 h 0 W/m 18,8 km/h (3 Bft) 97,86 %
22.12.2018 00:00 10,3 C 9,9 C 8,9 C 86 % 1005,6 hPa 0,0 l/m 0,00 h 0,00 h 0 W/m 19,7 km/h (3 Bft) 98,76 %
22.12.2018 01:00 10,3 C 9,4 C 8,9 C 87 % 1005,6 hPa 0,0 l/m 0,00 h 0,43 h 0 W/m 17,1 km/h (3 Bft) 96,87 %
22.12.2018 02:00 9,9 C 8,5 C 7,9 C 91 % 1005,5 hPa 0,2 l/m 0,00 h 0,80 h 0 W/m 15,9 km/h (3 Bft) 97,07 %
22.12.2018 03:00 9,6 C 8,3 C 8,3 C 93 % 1005,1 hPa 0,2 l/m 0,00 h 0,07 h 0 W/m 16,0 km/h (3 Bft) 97,44 %
22.12.2018 04:00 9,7 C 8,1 C 8,0 C 92 % 1004,3 hPa 1,4 l/m 0,00 h 0,77 h 0 W/m 22,7 km/h (4 Bft) 97,89 %
22.12.2018 05:00 9,5 C 8,2 C 7,8 C 94 % 1004,2 hPa 0,0 l/m 0,00 h 1,00 h 0 W/m 22,6 km/h (4 Bft) 98,82 %
22.12.2018 06:00 9,8 C 8,2 C 7,8 C 94 % 1005,1 hPa 1,2 l/m 0,00 h 0,87 h 0 W/m 24,8 km/h (4 Bft) 94,79 %
22.12.2018 07:00 8,6 C 7,4 C 6,9 C 93 % 1006,2 hPa 0,4 l/m 0,00 h 0,23 h 0 W/m 23,6 km/h (4 Bft) 98,02 %
22.12.2018 08:00 8,9 C 7,8 C 7,2 C 93 % 1007,4 hPa 0,0 l/m 0,00 h 0,13 h 5 W/m 23,7 km/h (4 Bft) 99,43 %
22.12.2018 09:00 9,1 C 8,2 C 7,3 C 92 % 1008,9 hPa 0,0 l/m 0,07 h 0,00 h 41 W/m 22,2 km/h (4 Bft) 94,55 %
22.12.2018 10:00 9,7 C 11,0 C 8,0 C 90 % 1010,3 hPa 0,0 l/m 0,70 h 0,00 h 131 W/m 19,2 km/h (3 Bft) 98,88 %
22.12.2018 11:00 10,1 C 9,9 C 8,8 C 89 % 1011,0 hPa 0,0 l/m 0,00 h 0,13 h 72 W/m 15,7 km/h (3 Bft) 97,81 %
22.12.2018 12:00 10,2 C 11,0 C 9,2 C 89 % 1011,6 hPa 0,0 l/m 0,30 h 0,00 h 137 W/m 19,5 km/h (3 Bft) 95,50 %
22.12.2018 13:00 10,4 C 10,3 C 9,4 C 88 % 1012,1 hPa 0,0 l/m 0,00 h 0,07 h 68 W/m 17,3 km/h (3 Bft) 99,01 %
22.12.2018 14:00 10,3 C 9,7 C 9,0 C 86 % 1012,7 hPa 0,0 l/m 0,03 h 0,47 h 68 W/m 18,6 km/h (3 Bft) 96,97 %
22.12.2018 15:00 9,9 C 9,5 C 8,6 C 88 % 1013,5 hPa 0,0 l/m 0,00 h 0,00 h 38 W/m 11,1 km/h (2 Bft) 97,17 %
22.12.2018 16:00 9,8 C 9,2 C 8,4 C 87 % 1014,4 hPa 0,0 l/m 0,00 h 0,00 h 12 W/m 14,7 km/h (3 Bft) 97,63 %
22.12.2018 17:00 9,3 C 8,5 C 7,8 C 87 % 1014,9 hPa 0,0 l/m 0,00 h 0,00 h 0 W/m 14,5 km/h (3 Bft) 96,65 %
22.12.2018 18:00 9,1 C 8,3 C 7,8 C 88 % 1015,7 hPa 0,0 l/m 0,00 h 0,00 h 0 W/m 14,0 km/h (3 Bft) 98,97 %
22.12.2018 19:00 8,9 C 8,1 C 7,5 C 89 % 1016,6 hPa 0,0 l/m 0,00 h 0,07 h 0 W/m 10,9 km/h (2 Bft) 95,83 %
22.12.2018 20:00 8,6 C 7,4 C 6,7 C 91 % 1016,8 hPa 0,2 l/m 0,00 h 0,60 h 0 W/m 9,0 km/h (2 Bft) 96,87 %
22.12.2018 21:00 8,4 C 7,8 C 7,2 C 91 % 1017,2 hPa 0,0 l/m 0,00 h 0,00 h 0 W/m 11,3 km/h (2 Bft) 99,50 %
22.12.2018 22:00 8,2 C 7,5 C 6,8 C 91 % 1017,7 hPa 0,0 l/m 0,00 h 0,00 h 0 W/m 12,6 km/h (3 Bft) 95,66 %
22.12.2018 23:00 8,1 C 7,4 C 6,7 C 92 % 1018,4 hPa 0,0 l/m 0,00 h 0,00 h 0 W/m 13,0 km/h (3 Bft) 97,15 %
23.12.2018 00:00 8,1 C 7,3 C 6,7 C 93 % 1018,5 hPa 0,0 l/m 0,00 h 0,00 h 0 W/m 13,2 km/h (3 Bft) 98,88 %
23.12.2018 01:00 7,9 C 7,1 C 6,6 C 93 % 1018,8 hPa 0,0 l/m 0,00 h 0,03 h 0 W/m 11,9 km/h (2 Bft) 96,15 %
23.12.2018 02:00 7,5 C 6,7 C 6,1 C 94 % 1019,1 hPa 0,0 l/m 0,00 h 0,00 h 0 W/m 10,4 km/h (2 Bft) 98,36 %
23.12.2018 03:00 7,4 C 6,7 C 6,1 C 95 % 1019,3 hPa 0,0 l/m 0,00 h 0,00 h 0 W/m 9,3 km/h (2 Bft) 96,30 %
23.12.2018 04:00 7,3 C 6,7 C 6,1 C 96 % 1019,2 hPa 0,0 l/m 0,00 h 0,00 h 0 W/m 7,1 km/h (2 Bft) 98,08 %
23.12.2018 05:00 7,3 C 6,7 C 6,1 C 96 % 1019,0 hPa 0,0 l/m 0,00 h 0,00 h 0 W/m 10,4 km/h (2 Bft) 96,69 %
23.12.2018 06:00 7,5 C 7,2 C 6,6 C 97 % 1018,7 hPa 0,0 l/m 0,00 h 0,00 h 0 W/m 9,0 km/h (2 Bft) 94,05 %
23.12.2018 07:00 7,7 C 7,3 C 6,7 C 97 % 1018,6 hPa 0,0 l/m 0,00 h 0,00 h 0 W/m 8,7 km/h (2 Bft) 98,22 %
23.12.2018 08:00 8,0 C 7,8 C 7,1 C 97 % 1018,4 hPa 0,0 l/m 0,00 h 0,00 h 5 W/m 8,9 km/h (2 Bft) 95,94 %
23.12.2018 09:00 8,3 C 8,1 C 7,4 C 96 % 1018,3 hPa 0,0 l/m 0,00 h 0,00 h 18 W/m 9,4 km/h (2 Bft) 93,95 %
23.12.2018 10:00 8,7 C 8,6 C 7,8 C 95 % 1018,0 hPa 0,0 l/m 0,00 h 0,00 h 33 W/m 12,9 km/h (3 Bft) 98,28 %
23.12.2018 11:00 8,9 C 8,5 C 7,8 C 93 % 1017,3 hPa 0,0 l/m 0,00 h 0,50 h 39 W/m 13,5 km/h (3 Bft) 95,45 %
23.12.2018 12:00 8,8 C 7,5 C 7,2 C 94 % 1016,3 hPa 0,4 l/m 0,00 h 1,00 h 39 W/m 14,8 km/h (3 Bft) 95,33 %
23.12.2018 13:00 8,6 C 7,2 C 7,1 C 95 % 1015,5 hPa 0,6 l/m 0,00 h 1,00 h 34 W/m 10,9 km/h (2 Bft) 98,01 %
23.12.2018 14:00 8,4 C 7,2 C 6,9 C 96 % 1014,2 hPa 0,6 l/m 0,00 h 1,00 h 34 W/m 2,8 km/h (1 Bft) 95,81 %
23.12.2018 15:00 8,3 C 7,2 C 6,8 C 96 % 1013,0 hPa 0,4 l/m 0,00 h 0,80 h 19 W/m 7,4 km/h (2 Bft) 98,86 %
23.12.2018 16:00 7,9 C 6,8 C 6,5 C 97 % 1012,1 hPa 0,6 l/m 0,00 h 0,83 h 5 W/m 11,5 km/h (2 Bft) 95,88 %
23.12.2018 17:00 7,6 C 6,7 C 6,3 C 97 % 1011,1 hPa 0,4 l/m 0,00 h 0,50 h 0 W/m 9,2 km/h (2 Bft) 96,34 %
23.12.2018 18:00 7,6 C 6,7 C 6,7 C 98 % 1010,5 hPa 0,8 l/m 0,00 h 1,00 h 0 W/m 6,4 km/h (2 Bft) 99,27 %
23.12.2018 19:00 7,7 C 7,0 C 6,7 C 98 % 1010,2 hPa 1,2 l/m 0,00 h 0,97 h 0 W/m 2,5 km/h (1 Bft) 95,30 %
23.12.2018 20:00 7,7 C 7,2 C 6,7 C 98 % 1010,2 hPa 1,6 l/m 0,00 h 0,93 h 0 W/m 1,7 km/h (1 Bft) 97,58 %
23.12.2018 21:00 7,8 C 7,1 C 6,6 C 98 % 1010,8 hPa 1,0 l/m 0,00 h 0,93 h 0 W/m 12,1 km/h (2 Bft) 98,71 %
23.12.2018 22:00 6,8 C 5,8 C 5,7 C 98 % 1012,0 hPa 1,2 l/m 0,00 h 1,00 h 0 W/m 14,2 km/h (3 Bft) 95,60 %
23.12.2018 23:00 6,1 C 5,3 C 5,0 C 98 % 1013,8 hPa 0,6 l/m 0,00 h 0,97 h 0 W/m 14,9 km/h (3 Bft) 97,44 %
Min-Datum _ 17.12.18 17.12.18 17.12.18 21.12.18 21.12.18 - - - - 17.12.18 17.12.18
_ Min-Zeit 00:00 00:24 01:50 16:04 12:56 - - - - 00:00 00:02
Minimum _ 1,3 C 0,6 C 0,0 C 79 % 996,6 hPa - - - - 0,0 km/h (0 Bft) 12,50 %
Max-Datum _ 21.12.18 19.12.18 21.12.18 17.12.18 17.12.18 21.12.18 18.12.18 22.12.18 19.12.18 19.12.18 17.12.18
_ Max-Zeit 14:52 11:28 13:46 11:30 23:52 06:00 12:08 05:19 11:52 00:46 00:00
Maximum _ 13,1 C 13,9 C 11,7 C 99 % 1023,0 hPa 3,2 l/m 0,07 h 0,08 h 326 W/m 54,7 km/h
SO (7 Bft)
100,00 %
Durchschnitt _ 7,2 C 6,6 C 5,9 C 92 % 1011,7 hPa #34,8 l/m #7:32 h #38:05 h 52 W/m 14,5 km/h (3 Bft) 96,63 %
© 2018 W. Hausmann